Main page
METAR-TAF:

METAR-TAF

Airports :

Cherif Al Idrissi Airport

Al Hoceima, Morocco

latitude: 35-11N, longitude: 003-51W, elevation: 27 m

Current weather observation

The report was made 27 minutes ago, at 10:00 UTC
Wind 2 kt from variable directions
Temperature 20°C
Humidity 60%
Pressure 1017 hPa
Visibility 10 km or more
Few clouds at a height of 2000 ft
Scattered clouds at a height of 20000 ft

METAR: GMTA 061000Z VRB02KT 9999 FEW020 SCT200 20/12 Q1017 NOSIG

Time: 11:27 (10:27 UTC)

Forecast

The report was made 5 hours and 27 minutes ago, at 05:00 UTC
Forecast valid from 06 at 06 UTC to 07 at 12 UTC
Wind 2 kt from variable directions
Visibility: 8000 m
Scattered clouds at a height of 1000 ft
Broken clouds at a height of 5000 ft

TAF: GMTA 060500Z 0606/0712 VRB02KT 8000 SCT010 BKN050

Weather observations and forecasts of more than 4000 airports (METAR and TAF reports).

The available stations are represented by yellow and red dots on the map.

Hover mouse over dot to see the name of the station.

Then click to see weather observations and forecasts.

To change the map : click on the green buttons with a black cross to zoom in, on the green button with a dash to zoom out, or on the green arrows for adjacent maps.


METAR-TAF: